Time;durP1;ratioP1;P1;durP2;ratioP2;P2;SDS_P1;SDS_P2;PMS_P1;PMS_P2;Temp;Humidity;BMP_temperature;BMP_pressure;BME280_temperature;BME280_humidity;BME280_pressure;Samples;Min_cycle;Max_cycle;Signal;HPM_P1;HPM_P2
2020/12/25 00:02:20;;;;;;;7.55;3.92;;;7.40;96.50;;;;;;5049458;28;20565;-73
2020/12/25 00:04:46;;;;;;;5.95;3.25;;;7.50;96.80;;;;;;5032615;28;20018;-72
2020/12/25 00:07:11;;;;;;;7.63;3.13;;;7.50;96.50;;;;;;5032312;28;20386;-73
2020/12/25 00:09:37;;;;;;;7.55;3.60;;;7.50;96.40;;;;;;5032676;28;20114;-72
2020/12/25 00:12:05;;;;;;;6.80;2.88;;;7.50;96.40;;;;;;5046139;28;20477;-72
2020/12/25 00:14:31;;;;;;;5.70;3.20;;;7.50;96.40;;;;;;5026220;28;20033;-72
2020/12/25 00:16:58;;;;;;;5.60;3.17;;;7.50;96.40;;;;;;5013615;28;20040;-73
2020/12/25 00:19:24;;;;;;;5.65;3.38;;;7.50;96.50;;;;;;5025895;28;20084;-73
2020/12/25 00:21:49;;;;;;;4.80;2.63;;;7.50;96.40;;;;;;5013496;28;20033;-72
2020/12/25 00:24:15;;;;;;;7.72;3.80;;;7.60;96.40;;;;;;5021796;28;20029;-73
2020/12/25 00:26:40;;;;;;;5.97;3.45;;;7.50;96.30;;;;;;5013771;28;20113;-72
2020/12/25 00:29:06;;;;;;;7.20;3.30;;;7.50;96.40;;;;;;5013202;28;20068;-73
2020/12/25 00:31:33;;;;;;;5.80;3.63;;;7.50;96.30;;;;;;4995512;28;20022;-73
2020/12/25 00:34:02;;;;;;;6.07;2.70;;;7.50;96.20;;;;;;5027100;28;20038;-72
2020/12/25 00:36:33;;;;;;;5.68;2.90;;;7.60;96.30;;;;;;5012514;28;20050;-72
2020/12/25 00:39:00;;;;;;;5.90;2.67;;;7.60;96.20;;;;;;5021965;28;20382;-72
2020/12/25 00:41:26;;;;;;;7.88;3.10;;;7.50;96.10;;;;;;5012993;28;20045;-73
2020/12/25 00:43:52;;;;;;;6.07;3.40;;;7.50;96.10;;;;;;5021502;28;20370;-72
2020/12/25 00:46:18;;;;;;;7.68;3.75;;;7.50;96.20;;;;;;5012200;28;20393;-72
2020/12/25 00:48:44;;;;;;;7.68;3.00;;;7.60;96.20;;;;;;5019902;28;20141;-71
2020/12/25 00:51:14;;;;;;;5.18;2.97;;;7.50;96.00;;;;;;5012657;28;20026;-71
2020/12/25 00:53:40;;;;;;;6.07;3.47;;;7.50;95.90;;;;;;5029877;28;20138;-73
2020/12/25 00:56:05;;;;;;;5.57;3.33;;;7.50;95.80;;;;;;5032510;28;20083;-73
2020/12/25 00:58:31;;;;;;;4.60;2.90;;;7.40;96.00;;;;;;5024894;28;20496;-73
2020/12/25 01:00:56;;;;;;;5.20;2.53;;;7.30;95.80;;;;;;5012524;28;20053;-73
2020/12/25 01:03:22;;;;;;;4.55;2.47;;;7.20;95.90;;;;;;5020206;28;20022;-73
2020/12/25 01:05:47;;;;;;;7.22;3.45;;;7.20;95.90;;;;;;5032302;28;20100;-72
2020/12/25 01:08:13;;;;;;;4.40;2.83;;;7.20;95.90;;;;;;5032240;28;20631;-73
2020/12/25 01:10:38;;;;;;;7.97;3.38;;;7.20;96.00;;;;;;5050148;28;20086;-73
2020/12/25 01:13:04;;;;;;;4.88;2.60;;;7.10;95.90;;;;;;5033746;28;20438;-73
2020/12/25 01:15:29;;;;;;;4.78;2.63;;;7.10;96.00;;;;;;5032600;28;20017;-73
2020/12/25 01:17:54;;;;;;;4.50;2.55;;;7.10;96.20;;;;;;5025991;28;20545;-73
2020/12/25 01:20:20;;;;;;;3.88;2.42;;;7.10;96.20;;;;;;5031166;28;20024;-73
2020/12/25 01:22:45;;;;;;;11.18;3.15;;;7.10;96.10;;;;;;5013841;28;20500;-74
2020/12/25 01:25:11;;;;;;;6.03;3.35;;;7.10;96.00;;;;;;5032013;28;20109;-73
2020/12/25 01:27:36;;;;;;;6.13;2.80;;;7.00;96.00;;;;;;5013158;28;20308;-74
2020/12/25 01:30:03;;;;;;;8.05;2.70;;;7.00;96.00;;;;;;5031977;28;20014;-73
2020/12/25 01:32:34;;;;;;;4.85;2.40;;;7.00;96.00;;;;;;5013642;28;20036;-74
2020/12/25 01:35:00;;;;;;;6.35;2.70;;;7.00;96.00;;;;;;5012534;28;20053;-73
2020/12/25 01:37:26;;;;;;;3.80;2.25;;;7.00;96.00;;;;;;5028213;28;20092;-74
2020/12/25 01:39:51;;;;;;;7.10;3.00;;;6.90;95.90;;;;;;4997894;28;20018;-73
2020/12/25 01:42:17;;;;;;;5.97;2.70;;;7.00;96.10;;;;;;4995762;28;20028;-74
2020/12/25 01:44:42;;;;;;;6.43;2.40;;;7.00;96.00;;;;;;5041397;28;20079;-73
2020/12/25 01:47:08;;;;;;;3.42;1.95;;;6.90;96.10;;;;;;5017922;28;20109;-74
2020/12/25 01:49:34;;;;;;;3.55;1.77;;;7.00;96.10;;;;;;5022978;28;20452;-73
2020/12/25 01:51:59;;;;;;;5.72;2.35;;;6.90;96.00;;;;;;5031392;28;20092;-73
2020/12/25 01:54:25;;;;;;;3.90;2.30;;;6.90;96.00;;;;;;5027596;28;20049;-74
2020/12/25 01:56:50;;;;;;;5.45;2.30;;;6.90;95.90;;;;;;5011786;28;20049;-73
2020/12/25 01:59:16;;;;;;;5.03;2.08;;;6.90;95.80;;;;;;5033655;28;20385;-73
2020/12/25 02:01:42;;;;;;;4.38;1.98;;;6.90;95.80;;;;;;5051081;28;20025;-73
2020/12/25 02:04:07;;;;;;;2.88;1.77;;;6.90;95.70;;;;;;5036574;28;20022;-73
2020/12/25 02:06:39;;;;;;;5.03;2.33;;;6.90;95.60;;;;;;5029636;28;20430;-73
2020/12/25 02:09:04;;;;;;;3.42;1.95;;;6.90;95.30;;;;;;5029639;28;20025;-73
2020/12/25 02:11:32;;;;;;;4.30;1.70;;;6.90;95.20;;;;;;5029796;28;20127;-73
2020/12/25 02:13:58;;;;;;;4.90;1.58;;;6.90;95.00;;;;;;5027674;28;20026;-73
2020/12/25 02:16:23;;;;;;;5.03;2.05;;;6.80;95.10;;;;;;5031372;28;20498;-73
2020/12/25 02:18:49;;;;;;;7.53;3.67;;;6.70;94.90;;;;;;5023301;28;20047;-73
2020/12/25 02:21:14;;;;;;;5.88;2.55;;;6.70;95.00;;;;;;5012422;28;20040;-73
2020/12/25 02:23:40;;;;;;;4.25;2.30;;;6.80;95.10;;;;;;5038457;28;20493;-75
2020/12/25 02:26:05;;;;;;;4.72;1.63;;;6.70;94.90;;;;;;5030455;28;20025;-74
2020/12/25 02:28:31;;;;;;;3.47;1.33;;;6.70;94.70;;;;;;5030046;28;20021;-75
2020/12/25 02:30:56;;;;;;;5.95;1.60;;;6.70;94.50;;;;;;5030435;28;20025;-74
2020/12/25 02:33:22;;;;;;;4.43;1.75;;;6.70;94.10;;;;;;5010350;28;20029;-74
2020/12/25 02:35:47;;;;;;;3.30;1.50;;;6.70;94.30;;;;;;5028970;28;20080;-74
2020/12/25 02:38:13;;;;;;;3.33;1.20;;;6.60;93.90;;;;;;5011539;28;20397;-74
2020/12/25 02:40:38;;;;;;;3.47;1.42;;;6.60;93.70;;;;;;5029774;28;20033;-74
2020/12/25 02:43:04;;;;;;;1.98;1.15;;;6.50;93.50;;;;;;5030494;28;20080;-74
2020/12/25 02:45:29;;;;;;;2.08;1.20;;;6.50;93.60;;;;;;5043024;28;20628;-74
2020/12/25 02:47:55;;;;;;;3.97;1.50;;;6.50;93.70;;;;;;5014752;28;20065;-74
2020/12/25 02:50:20;;;;;;;2.40;1.30;;;6.50;93.70;;;;;;5027645;28;20482;-74
2020/12/25 02:52:46;;;;;;;1.55;1.10;;;6.50;93.40;;;;;;5015047;28;20072;-74
2020/12/25 02:55:13;;;;;;;1.55;1.08;;;6.40;93.40;;;;;;5035195;28;20153;-74
2020/12/25 02:57:39;;;;;;;3.72;1.40;;;6.30;93.20;;;;;;5018305;28;20041;-74
2020/12/25 03:00:04;;;;;;;2.03;1.15;;;6.40;93.20;;;;;;5038055;28;20484;-74
2020/12/25 03:02:30;;;;;;;1.25;1.00;;;6.30;93.40;;;;;;5015852;28;20053;-74
2020/12/25 03:04:55;;;;;;;2.00;1.10;;;6.30;93.20;;;;;;5029757;28;20036;-74
2020/12/25 03:07:21;;;;;;;2.72;1.20;;;6.30;93.30;;;;;;5030131;28;20029;-74
2020/12/25 03:09:46;;;;;;;2.58;1.20;;;6.30;93.20;;;;;;5038586;28;20128;-74
2020/12/25 03:12:12;;;;;;;3.08;1.38;;;6.20;93.10;;;;;;5028543;28;20041;-74
2020/12/25 03:14:37;;;;;;;2.63;1.48;;;6.20;92.90;;;;;;5024558;28;20476;-74
2020/12/25 03:17:03;;;;;;;3.90;1.10;;;6.20;92.70;;;;;;5033398;28;20037;-73
2020/12/25 03:19:28;;;;;;;1.67;1.20;;;6.20;92.80;;;;;;5032434;28;20083;-74
2020/12/25 03:21:54;;;;;;;3.92;1.40;;;6.10;92.70;;;;;;5021357;28;20030;-74
2020/12/25 03:24:19;;;;;;;3.95;1.70;;;6.20;93.00;;;;;;5037321;28;20221;-74
2020/12/25 03:26:45;;;;;;;2.67;1.48;;;6.20;92.80;;;;;;5023051;28;20033;-74
2020/12/25 03:29:10;;;;;;;2.88;1.52;;;6.20;92.80;;;;;;5018489;28;20108;-74
2020/12/25 03:31:36;;;;;;;3.38;1.30;;;6.20;92.70;;;;;;5020758;28;20030;-74
2020/12/25 03:34:01;;;;;;;3.00;1.33;;;6.20;92.60;;;;;;5018520;28;20022;-74
2020/12/25 03:36:27;;;;;;;3.75;1.50;;;6.20;92.70;;;;;;5024355;28;20033;-74
2020/12/25 03:38:52;;;;;;;2.55;1.33;;;6.20;92.70;;;;;;5033324;28;20020;-74
2020/12/25 03:41:18;;;;;;;4.07;1.63;;;6.20;92.70;;;;;;5016095;28;20048;-73
2020/12/25 03:43:43;;;;;;;3.08;1.60;;;6.20;92.70;;;;;;5030745;28;20187;-73
2020/12/25 03:46:09;;;;;;;1.90;1.33;;;6.20;92.80;;;;;;5033662;28;20045;-73
2020/12/25 03:48:34;;;;;;;2.67;1.38;;;6.20;92.70;;;;;;5031949;28;20099;-73
2020/12/25 03:51:00;;;;;;;3.80;1.63;;;6.20;92.70;;;;;;5030814;28;20478;-73
2020/12/25 03:53:25;;;;;;;3.58;1.73;;;6.30;92.80;;;;;;5053180;28;20071;-73
2020/12/25 03:55:51;;;;;;;1.95;1.17;;;6.20;92.60;;;;;;5031863;28;20322;-73
2020/12/25 03:58:16;;;;;;;1.88;1.10;;;6.30;92.60;;;;;;5033107;28;20018;-73
2020/12/25 04:00:42;;;;;;;2.30;1.20;;;6.20;92.50;;;;;;5043153;28;20047;-73
2020/12/25 04:03:07;;;;;;;1.90;1.10;;;6.20;92.50;;;;;;5051050;28;20021;-73
2020/12/25 04:05:33;;;;;;;3.60;1.42;;;6.20;92.60;;;;;;5030830;28;20034;-72
2020/12/25 04:07:58;;;;;;;4.18;1.23;;;6.20;92.50;;;;;;5033717;28;20014;-73
2020/12/25 04:10:24;;;;;;;2.20;1.27;;;6.20;92.60;;;;;;5030040;28;20033;-72
2020/12/25 04:12:49;;;;;;;2.90;1.75;;;6.20;92.70;;;;;;5033367;28;20095;-73
2020/12/25 04:15:15;;;;;;;2.42;1.40;;;6.30;92.70;;;;;;5046928;28;20191;-73
2020/12/25 04:17:40;;;;;;;5.80;1.70;;;6.30;92.70;;;;;;5032111;28;20060;-72
2020/12/25 04:20:06;;;;;;;2.50;1.38;;;6.30;92.80;;;;;;5028208;28;20469;-72
2020/12/25 04:22:31;;;;;;;4.20;1.15;;;6.20;92.90;;;;;;5037314;28;20033;-72
2020/12/25 04:24:57;;;;;;;3.38;1.60;;;6.30;92.90;;;;;;5012538;28;20370;-72
2020/12/25 04:27:22;;;;;;;3.03;1.55;;;6.20;92.90;;;;;;5026716;28;20037;-73
2020/12/25 04:29:48;;;;;;;3.03;1.77;;;6.30;92.90;;;;;;5023312;28;20020;-73
2020/12/25 04:32:13;;;;;;;5.60;2.17;;;6.30;93.00;;;;;;5041386;28;20029;-73
2020/12/25 04:34:39;;;;;;;5.25;2.13;;;6.30;93.10;;;;;;5006195;28;20508;-73
2020/12/25 04:37:04;;;;;;;2.45;1.30;;;6.40;93.20;;;;;;5032157;28;20040;-72
2020/12/25 04:39:30;;;;;;;2.72;1.38;;;6.40;93.20;;;;;;5032081;28;20034;-73
2020/12/25 04:41:56;;;;;;;3.05;1.50;;;6.40;93.20;;;;;;5014121;28;20563;-73
2020/12/25 04:44:22;;;;;;;2.13;1.20;;;6.50;93.40;;;;;;5015783;28;20116;-74
2020/12/25 04:46:51;;;;;;;1.67;1.08;;;6.60;93.40;;;;;;5030211;28;20128;-73
2020/12/25 04:49:17;;;;;;;2.05;1.10;;;6.60;93.50;;;;;;5030489;28;20634;-73
2020/12/25 04:51:42;;;;;;;1.35;1.00;;;6.60;93.40;;;;;;5016493;28;20042;-73
2020/12/25 04:54:08;;;;;;;1.35;1.10;;;6.50;93.40;;;;;;5013391;28;20116;-73
2020/12/25 04:56:33;;;;;;;2.45;1.10;;;6.60;93.60;;;;;;5031916;28;20045;-74
2020/12/25 04:58:59;;;;;;;1.67;1.00;;;6.60;93.70;;;;;;5032148;28;20021;-74
2020/12/25 05:01:24;;;;;;;1.52;1.00;;;6.60;93.80;;;;;;5021361;28;20025;-73
2020/12/25 05:03:50;;;;;;;2.45;1.20;;;6.70;94.00;;;;;;5033725;28;20021;-74
2020/12/25 05:06:17;;;;;;;2.80;1.20;;;6.60;93.80;;;;;;5021769;28;20117;-74
2020/12/25 05:08:45;;;;;;;3.03;1.33;;;6.60;93.90;;;;;;5012704;28;20053;-73
2020/12/25 05:11:13;;;;;;;2.00;1.20;;;6.60;94.00;;;;;;5015596;28;20033;-74
2020/12/25 05:13:48;;;;;;;2.10;1.20;;;6.60;94.10;;;;;;5025793;28;20033;-73
2020/12/25 05:16:15;;;;;;;1.77;1.00;;;6.60;94.00;;;;;;5030482;28;20029;-73
2020/12/25 05:18:43;;;;;;;2.45;1.00;;;6.60;94.20;;;;;;5026009;28;20053;-73
2020/12/25 05:21:14;;;;;;;4.15;1.00;;;6.60;94.30;;;;;;5026275;28;20025;-73
2020/12/25 05:23:40;;;;;;;1.23;0.90;;;6.60;94.30;;;;;;5040337;28;20029;-73
2020/12/25 05:26:08;;;;;;;2.47;0.90;;;6.60;94.40;;;;;;5028341;28;20498;-73
2020/12/25 05:28:41;;;;;;;1.27;1.13;;;6.60;94.50;;;;;;5031239;28;20535;-73
2020/12/25 05:31:08;;;;;;;1.35;0.95;;;6.60;94.30;;;;;;5031124;28;20060;-73
2020/12/25 05:33:35;;;;;;;2.80;1.00;;;6.50;94.40;;;;;;5031967;28;20022;-73
2020/12/25 05:36:05;;;;;;;4.10;1.23;;;6.50;94.20;;;;;;5021337;28;20045;-73
2020/12/25 05:38:31;;;;;;;2.63;1.30;;;6.50;94.10;;;;;;5015908;28;20037;-70
2020/12/25 05:40:59;;;;;;;1.48;1.10;;;6.50;94.00;;;;;;5030345;28;20149;-73
2020/12/25 05:43:26;;;;;;;2.15;1.00;;;6.40;93.70;;;;;;5030790;28;20041;-71
2020/12/25 05:45:51;;;;;;;2.50;1.25;;;6.30;93.60;;;;;;5039703;28;20036;-72
2020/12/25 05:48:17;;;;;;;3.92;1.20;;;6.30;93.80;;;;;;5013433;28;20477;-72
2020/12/25 05:50:43;;;;;;;1.35;0.90;;;6.30;93.30;;;;;;5023611;28;20045;-71
2020/12/25 05:53:09;;;;;;;1.90;0.98;;;6.20;93.30;;;;;;5014074;28;20388;-72
2020/12/25 05:55:35;;;;;;;1.20;0.90;;;6.10;93.20;;;;;;5026555;28;20055;-72
2020/12/25 05:58:03;;;;;;;3.17;1.00;;;6.20;93.00;;;;;;5024398;28;20042;-72
2020/12/25 06:00:30;;;;;;;1.85;0.90;;;6.10;92.90;;;;;;5025962;28;20025;-71
2020/12/25 06:02:56;;;;;;;1.92;0.90;;;6.10;93.10;;;;;;5033961;28;20037;-71
2020/12/25 06:05:23;;;;;;;1.58;0.82;;;6.10;92.80;;;;;;5030383;28;20021;-71
2020/12/25 06:07:56;;;;;;;1.42;0.90;;;6.00;92.60;;;;;;5030518;28;20041;-71
2020/12/25 06:10:28;;;;;;;1.50;0.98;;;6.00;92.80;;;;;;5033615;28;20103;-71
2020/12/25 06:12:55;;;;;;;3.03;1.42;;;6.00;93.00;;;;;;5017836;28;20456;-71
2020/12/25 06:15:32;;;;;;;1.92;1.00;;;6.00;93.20;;;;;;5018466;28;20083;-71
2020/12/25 06:18:09;;;;;;;2.67;1.40;;;6.00;93.50;;;;;;5031298;28;20043;-71
2020/12/25 06:20:39;;;;;;;3.15;1.60;;;6.10;93.50;;;;;;5034456;28;20033;-71
2020/12/25 06:23:05;;;;;;;3.60;1.35;;;6.10;93.70;;;;;;5049147;28;20029;-71
2020/12/25 06:25:31;;;;;;;2.22;1.40;;;6.00;93.90;;;;;;5031042;28;20033;-71
2020/12/25 06:27:59;;;;;;;2.25;1.30;;;6.00;94.10;;;;;;5031268;28;20072;-72
2020/12/25 06:30:27;;;;;;;1.60;1.10;;;6.10;94.30;;;;;;5035157;28;20052;-72
2020/12/25 06:32:53;;;;;;;3.80;1.42;;;6.20;94.40;;;;;;5051149;28;20032;-73
2020/12/25 06:35:38;;;;;;;2.40;1.40;;;6.20;94.50;;;;;;5026559;28;20171;-73
2020/12/25 06:38:15;;;;;;;1.42;1.17;;;6.20;94.60;;;;;;5031185;28;20041;-72
2020/12/25 06:40:41;;;;;;;2.00;1.20;;;6.20;94.50;;;;;;5027095;28;20041;-73
2020/12/25 06:43:15;;;;;;;1.92;1.27;;;6.20;94.70;;;;;;5023473;28;20470;-73
2020/12/25 06:45:41;;;;;;;3.00;1.92;;;6.20;94.70;;;;;;5026503;28;20052;-73
2020/12/25 06:48:11;;;;;;;2.63;1.38;;;6.20;94.80;;;;;;5024158;28;20025;-73
2020/12/25 06:50:41;;;;;;;2.53;1.60;;;6.30;94.90;;;;;;5023495;28;20124;-73
2020/12/25 06:53:07;;;;;;;2.78;1.50;;;6.30;94.90;;;;;;5032189;28;20049;-73
2020/12/25 06:55:43;;;;;;;2.65;1.40;;;6.30;94.80;;;;;;5045086;28;20107;-72
2020/12/25 06:58:10;;;;;;;4.90;1.85;;;6.30;95.00;;;;;;5033538;28;20065;-72
2020/12/25 07:00:40;;;;;;;2.67;1.65;;;6.30;95.00;;;;;;5033542;28;20029;-72
2020/12/25 07:03:13;;;;;;;1.58;1.23;;;6.20;95.20;;;;;;5015013;28;20032;-72
2020/12/25 07:05:48;;;;;;;2.55;1.67;;;6.30;95.30;;;;;;5035893;28;20032;-71
2020/12/25 07:08:31;;;;;;;3.83;1.65;;;6.30;95.30;;;;;;5038766;28;20037;-72
2020/12/25 07:11:01;;;;;;;2.25;1.67;;;6.30;95.10;;;;;;5024397;28;20100;-72
2020/12/25 07:13:29;;;;;;;1.65;1.40;;;6.30;95.10;;;;;;5034295;28;20103;-73
2020/12/25 07:15:55;;;;;;;3.15;1.50;;;6.20;95.10;;;;;;5035411;28;20028;-73
2020/12/25 07:18:20;;;;;;;3.83;1.42;;;6.20;94.90;;;;;;5026330;28;20033;-73
2020/12/25 07:20:46;;;;;;;1.65;1.25;;;6.20;94.80;;;;;;5032441;28;20030;-73
2020/12/25 07:23:12;;;;;;;2.72;1.45;;;6.20;94.70;;;;;;5033520;28;20109;-72
2020/12/25 07:25:41;;;;;;;3.50;1.45;;;6.10;94.80;;;;;;5035107;28;20412;-72
2020/12/25 07:28:07;;;;;;;3.28;1.10;;;6.20;94.70;;;;;;5037006;28;20044;-72
2020/12/25 07:30:32;;;;;;;2.38;1.40;;;6.20;94.70;;;;;;5029001;28;20030;-71
2020/12/25 07:32:58;;;;;;;2.45;1.58;;;6.20;94.70;;;;;;5015837;28;20045;-71
2020/12/25 07:35:23;;;;;;;6.05;2.85;;;6.20;94.60;;;;;;5033405;28;20389;-71
2020/12/25 07:37:55;;;;;;;2.03;1.30;;;6.20;94.40;;;;;;5025493;28;20422;-71
2020/12/25 07:40:21;;;;;;;6.60;2.85;;;6.10;94.40;;;;;;5041375;28;20030;-72
2020/12/25 07:42:46;;;;;;;3.72;2.55;;;6.00;94.40;;;;;;5033422;28;20083;-71
2020/12/25 07:45:12;;;;;;;5.93;2.08;;;6.00;94.50;;;;;;5022559;28;20363;-70
2020/12/25 07:47:39;;;;;;;3.63;2.00;;;6.00;94.60;;;;;;5051665;28;20398;-70
2020/12/25 07:50:05;;;;;;;5.38;1.60;;;6.10;94.60;;;;;;5040417;28;20469;-68
2020/12/25 07:52:30;;;;;;;2.13;1.30;;;6.00;94.70;;;;;;5033873;28;20033;-73
2020/12/25 07:54:56;;;;;;;3.00;1.23;;;6.00;94.50;;;;;;5032257;28;20119;-72
2020/12/25 07:57:22;;;;;;;3.55;1.40;;;6.10;94.50;;;;;;5033467;28;20494;-72
2020/12/25 07:59:49;;;;;;;2.17;1.23;;;6.00;94.40;;;;;;5023098;28;20025;-70
2020/12/25 08:02:16;;;;;;;2.65;1.30;;;6.00;94.40;;;;;;5025037;28;20037;-69
2020/12/25 08:04:43;;;;;;;3.30;1.30;;;6.00;94.50;;;;;;5041198;28;20059;-72
2020/12/25 08:07:09;;;;;;;3.30;1.30;;;6.10;94.60;;;;;;5013569;28;20029;-68
2020/12/25 08:09:37;;;;;;;2.88;1.30;;;6.10;94.60;;;;;;5050711;28;20108;-72
2020/12/25 08:12:08;;;;;;;2.55;1.30;;;6.10;94.70;;;;;;5033959;28;20037;-71
2020/12/25 08:14:38;;;;;;;2.72;1.65;;;6.20;94.30;;;;;;5033726;28;20108;-69
2020/12/25 08:17:04;;;;;;;3.15;1.80;;;6.20;94.40;;;;;;5030316;28;20496;-72
2020/12/25 08:19:36;;;;;;;1.90;1.40;;;6.30;94.50;;;;;;5014136;28;20030;-73
2020/12/25 08:22:05;;;;;;;5.32;1.70;;;6.30;94.50;;;;;;5039780;28;20060;-73
2020/12/25 08:24:31;;;;;;;3.50;1.77;;;6.40;94.50;;;;;;5030039;28;20092;-73
2020/12/25 08:27:03;;;;;;;4.43;1.90;;;6.40;94.30;;;;;;5031172;28;21549;-73
2020/12/25 08:29:32;;;;;;;4.13;1.60;;;6.40;94.10;;;;;;5033234;28;20041;-73
2020/12/25 08:32:08;;;;;;;2.47;1.60;;;6.40;94.00;;;;;;5032823;28;20591;-73
2020/12/25 08:34:34;;;;;;;3.97;2.03;;;6.40;94.10;;;;;;5033756;28;20072;-73
2020/12/25 08:37:02;;;;;;;4.15;1.70;;;6.50;94.10;;;;;;5028210;28;20036;-74
2020/12/25 08:39:29;;;;;;;2.30;1.42;;;6.50;93.90;;;;;;5032742;28;20534;-73
2020/12/25 08:41:55;;;;;;;2.00;1.40;;;6.50;93.80;;;;;;5041370;28;20329;-70
2020/12/25 08:44:21;;;;;;;3.05;1.70;;;6.50;94.00;;;;;;5033194;28;20033;-69
2020/12/25 08:46:47;;;;;;;3.95;1.80;;;6.40;93.60;;;;;;5041196;28;20542;-71
2020/12/25 08:49:23;;;;;;;3.75;1.50;;;6.50;93.80;;;;;;5018037;28;20137;-71
2020/12/25 08:51:49;;;;;;;4.18;2.13;;;6.50;93.90;;;;;;5029485;28;20033;-70
2020/12/25 08:54:25;;;;;;;3.85;1.90;;;6.40;93.80;;;;;;5033406;28;20049;-69
2020/12/25 08:56:50;;;;;;;4.32;2.20;;;6.40;93.80;;;;;;5024065;28;20033;-72
2020/12/25 08:59:20;;;;;;;3.05;1.70;;;6.30;93.60;;;;;;5010831;28;20076;-73
2020/12/25 09:01:46;;;;;;;4.53;1.90;;;6.30;93.90;;;;;;5024200;28;20033;-73
2020/12/25 09:04:13;;;;;;;3.03;1.80;;;6.30;93.90;;;;;;5023773;28;20025;-73
2020/12/25 09:06:39;;;;;;;3.63;1.70;;;6.40;94.00;;;;;;5023059;28;20030;-73
2020/12/25 09:09:04;;;;;;;3.58;1.77;;;6.50;93.90;;;;;;5016928;28;20517;-73
2020/12/25 09:11:30;;;;;;;3.22;1.40;;;6.50;93.90;;;;;;5024765;28;20150;-73
2020/12/25 09:13:55;;;;;;;3.00;1.50;;;6.50;93.90;;;;;;5014253;28;20200;-73
2020/12/25 09:16:21;;;;;;;2.20;1.42;;;6.60;93.80;;;;;;5025500;28;20029;-73
2020/12/25 09:18:47;;;;;;;2.72;1.50;;;6.50;93.80;;;;;;5031256;28;20053;-73
2020/12/25 09:21:14;;;;;;;4.28;1.50;;;6.50;93.70;;;;;;5024597;28;20029;-73
2020/12/25 09:23:40;;;;;;;4.05;1.90;;;6.60;93.80;;;;;;5036281;28;20108;-73
2020/12/25 09:26:07;;;;;;;4.03;1.45;;;6.60;93.70;;;;;;5022585;28;20120;-73
2020/12/25 09:28:32;;;;;;;3.38;1.58;;;6.60;93.80;;;;;;5029711;28;20057;-73
2020/12/25 09:30:58;;;;;;;3.53;1.48;;;6.60;93.40;;;;;;5011974;28;20029;-72
2020/12/25 09:33:24;;;;;;;3.42;1.70;;;6.60;93.60;;;;;;5030626;28;20081;-73
2020/12/25 09:35:50;;;;;;;2.22;1.20;;;6.70;93.60;;;;;;5019942;28;20026;-69
2020/12/25 09:38:16;;;;;;;2.88;1.70;;;6.60;93.20;;;;;;5044503;28;20132;-74
2020/12/25 09:40:42;;;;;;;5.03;1.60;;;6.60;93.50;;;;;;5029747;28;20168;-74
2020/12/25 09:43:08;;;;;;;3.08;1.65;;;6.60;93.60;;;;;;5029791;28;20049;-75
2020/12/25 09:45:33;;;;;;;3.03;1.48;;;6.70;93.50;;;;;;5013177;28;20113;-75
2020/12/25 09:47:59;;;;;;;3.42;1.60;;;6.70;93.40;;;;;;5023681;28;20032;-75
2020/12/25 09:50:25;;;;;;;3.17;1.70;;;6.70;93.40;;;;;;5039694;28;20083;-75
2020/12/25 09:52:50;;;;;;;3.42;1.90;;;6.70;93.30;;;;;;5031637;28;20025;-75
2020/12/25 09:55:16;;;;;;;2.85;1.70;;;6.80;93.20;;;;;;5030331;28;20046;-74
2020/12/25 09:57:41;;;;;;;2.22;1.40;;;6.80;93.10;;;;;;5025888;28;20497;-74
2020/12/25 10:00:10;;;;;;;5.63;2.00;;;6.70;93.10;;;;;;5030342;28;20458;-74
2020/12/25 10:02:36;;;;;;;3.85;1.60;;;6.70;93.20;;;;;;5028809;28;20029;-73
2020/12/25 10:05:02;;;;;;;5.57;2.05;;;6.70;92.80;;;;;;5031176;28;20093;-74
2020/12/25 10:07:28;;;;;;;3.28;1.42;;;6.70;92.80;;;;;;5038985;28;20518;-74
2020/12/25 10:09:53;;;;;;;2.35;1.52;;;6.70;92.90;;;;;;5021416;28;20025;-74
2020/12/25 10:12:19;;;;;;;4.50;1.88;;;6.70;92.80;;;;;;5032288;28;20492;-74
2020/12/25 10:14:44;;;;;;;4.72;1.60;;;6.70;92.90;;;;;;5027836;28;20022;-74
2020/12/25 10:17:10;;;;;;;3.15;1.48;;;6.70;92.90;;;;;;5030160;28;20052;-74
2020/12/25 10:19:35;;;;;;;3.67;1.75;;;6.70;92.50;;;;;;5010834;28;20057;-74
2020/12/25 10:22:01;;;;;;;4.30;2.70;;;6.70;92.80;;;;;;5009239;28;20026;-74
2020/12/25 10:24:27;;;;;;;4.00;1.65;;;6.80;92.90;;;;;;5030901;28;20022;-74
2020/12/25 10:26:52;;;;;;;3.05;1.67;;;6.80;92.60;;;;;;5031547;28;20022;-74
2020/12/25 10:29:18;;;;;;;2.95;1.38;;;6.80;92.60;;;;;;5031268;28;20025;-74
2020/12/25 10:31:47;;;;;;;2.88;1.50;;;6.70;92.50;;;;;;5030668;28;20033;-74
2020/12/25 10:34:13;;;;;;;3.60;1.67;;;6.80;92.60;;;;;;5021177;28;20076;-75
2020/12/25 10:36:39;;;;;;;3.75;1.42;;;6.80;92.00;;;;;;5028815;28;20508;-75
2020/12/25 10:39:04;;;;;;;2.45;1.38;;;6.80;92.40;;;;;;5031158;28;20486;-74
2020/12/25 10:41:31;;;;;;;5.18;1.70;;;6.80;92.30;;;;;;5028316;28;20029;-75
2020/12/25 10:43:57;;;;;;;3.55;1.60;;;6.90;92.30;;;;;;5030692;28;20022;-74
2020/12/25 10:46:23;;;;;;;4.40;1.90;;;6.90;91.90;;;;;;5004060;28;20502;-75
2020/12/25 10:48:48;;;;;;;4.78;1.80;;;6.90;91.90;;;;;;5029540;28;20160;-75
2020/12/25 10:51:14;;;;;;;3.30;1.48;;;6.90;92.10;;;;;;5007082;28;20022;-75
2020/12/25 10:53:41;;;;;;;3.58;2.20;;;6.90;92.00;;;;;;5029971;28;20044;-75
2020/12/25 10:56:07;;;;;;;3.70;1.88;;;6.90;91.80;;;;;;5030640;28;20128;-75
2020/12/25 10:58:32;;;;;;;3.70;2.10;;;6.80;92.00;;;;;;5029793;28;20032;-75
2020/12/25 11:00:58;;;;;;;7.13;1.92;;;6.90;91.80;;;;;;5012541;28;20021;-75
2020/12/25 11:03:23;;;;;;;5.20;2.00;;;6.90;91.80;;;;;;5030701;28;20477;-75
2020/12/25 11:05:49;;;;;;;5.00;2.28;;;6.90;91.80;;;;;;5021007;28;20116;-75
2020/12/25 11:08:14;;;;;;;4.03;2.70;;;7.00;91.80;;;;;;5030493;28;20018;-75
2020/12/25 11:10:46;;;;;;;3.10;1.77;;;7.00;91.70;;;;;;5030189;28;20462;-75
2020/12/25 11:13:11;;;;;;;2.65;1.65;;;7.10;91.60;;;;;;5043768;28;20021;-76
2020/12/25 11:15:40;;;;;;;4.47;1.50;;;7.10;91.60;;;;;;5034662;28;20032;-76
2020/12/25 11:18:07;;;;;;;2.95;1.30;;;7.20;91.60;;;;;;5030928;28;20509;-76
2020/12/25 11:20:32;;;;;;;2.58;1.60;;;7.20;91.50;;;;;;5029079;28;20102;-76
2020/12/25 11:22:58;;;;;;;3.92;1.40;;;7.20;91.20;;;;;;5010702;28;20923;-75
2020/12/25 11:25:23;;;;;;;3.55;1.77;;;7.30;91.00;;;;;;5026803;28;20087;-76
2020/12/25 11:27:49;;;;;;;2.15;1.40;;;7.20;90.80;;;;;;5030552;28;20555;-76
2020/12/25 11:30:14;;;;;;;2.67;1.50;;;7.20;90.50;;;;;;5035110;28;20085;-76
2020/12/25 11:32:40;;;;;;;2.55;1.42;;;7.20;90.70;;;;;;5025908;28;20076;-76
2020/12/25 11:35:05;;;;;;;2.65;1.30;;;7.20;90.70;;;;;;5026919;28;20029;-76
2020/12/25 11:37:31;;;;;;;4.10;1.30;;;7.20;90.60;;;;;;5016636;28;20038;-76
2020/12/25 11:39:56;;;;;;;3.42;1.60;;;7.20;90.40;;;;;;5033723;28;20017;-76
2020/12/25 11:42:21;;;;;;;2.15;1.25;;;7.20;90.00;;;;;;5033548;28;20481;-76
2020/12/25 11:44:47;;;;;;;5.75;1.80;;;7.10;90.30;;;;;;5015878;28;20120;-76
2020/12/25 11:47:13;;;;;;;2.70;1.42;;;7.10;90.70;;;;;;5034178;28;20030;-76
2020/12/25 11:49:38;;;;;;;4.15;1.30;;;7.00;90.50;;;;;;5033792;28;20028;-76
2020/12/25 11:52:03;;;;;;;3.35;1.60;;;6.90;90.30;;;;;;5033535;28;20033;-76
2020/12/25 11:54:29;;;;;;;4.15;1.70;;;6.90;90.50;;;;;;5032491;28;20045;-76
2020/12/25 11:56:54;;;;;;;3.10;1.50;;;6.90;90.50;;;;;;5032157;28;20083;-77
2020/12/25 11:59:20;;;;;;;3.90;1.23;;;6.90;90.40;;;;;;5028237;28;20488;-76
2020/12/25 12:01:47;;;;;;;3.50;1.38;;;6.90;90.50;;;;;;5045895;28;20115;-76
2020/12/25 12:04:13;;;;;;;3.55;1.50;;;6.90;90.60;;;;;;5052335;28;20029;-77
2020/12/25 12:06:38;;;;;;;4.53;1.75;;;6.90;90.70;;;;;;5033571;28;20028;-76
2020/12/25 12:09:04;;;;;;;3.97;1.90;;;7.00;90.90;;;;;;5016163;28;20018;-77
2020/12/25 12:11:29;;;;;;;4.40;1.60;;;7.00;90.80;;;;;;5015366;28;20037;-77
2020/12/25 12:13:55;;;;;;;2.80;1.42;;;7.00;90.50;;;;;;5015128;28;20136;-76
2020/12/25 12:16:21;;;;;;;2.55;1.25;;;7.00;90.70;;;;;;5031815;28;20042;-77
2020/12/25 12:18:48;;;;;;;2.75;1.52;;;7.00;90.50;;;;;;5032894;28;20359;-76
2020/12/25 12:21:13;;;;;;;4.22;1.80;;;7.00;90.30;;;;;;5021606;28;20041;-77
2020/12/25 12:23:39;;;;;;;3.33;1.40;;;7.00;90.40;;;;;;5033448;28;20026;-77
2020/12/25 12:26:05;;;;;;;2.45;1.50;;;7.00;90.30;;;;;;5033581;28;20010;-77
2020/12/25 12:28:31;;;;;;;3.25;1.73;;;7.00;90.20;;;;;;5033436;28;20033;-77
2020/12/25 12:30:57;;;;;;;6.88;1.50;;;6.90;90.20;;;;;;5032469;28;20028;-75
2020/12/25 12:33:22;;;;;;;4.10;1.65;;;6.90;90.10;;;;;;5032914;28;20025;-76
2020/12/25 12:35:48;;;;;;;5.45;1.70;;;6.90;90.00;;;;;;5033431;28;20021;-77
2020/12/25 12:38:14;;;;;;;3.80;1.50;;;6.90;90.00;;;;;;5033535;28;20052;-76
2020/12/25 12:40:40;;;;;;;3.72;1.48;;;6.80;89.90;;;;;;5033437;28;20474;-73
2020/12/25 12:43:06;;;;;;;3.15;1.92;;;6.70;90.10;;;;;;5032127;28;20036;-73
2020/12/25 12:45:31;;;;;;;2.63;1.48;;;6.70;90.10;;;;;;5029669;28;20021;-74
2020/12/25 12:47:57;;;;;;;2.55;1.30;;;6.70;90.20;;;;;;5026350;28;20095;-73
2020/12/25 12:50:22;;;;;;;2.60;1.45;;;6.70;90.20;;;;;;5018092;28;20068;-73
2020/12/25 12:52:47;;;;;;;2.80;1.42;;;6.70;90.30;;;;;;5032948;28;20013;-73
2020/12/25 12:55:13;;;;;;;3.30;1.50;;;6.70;90.10;;;;;;5001111;28;20057;-73